createdAt,value
2019-05-30T04:00:32.121Z,22.5
2019-05-30T04:04:00.122Z,22.5
2019-05-30T04:07:28.173Z,22.5
2019-05-30T04:10:57.092Z,22.5
2019-05-30T04:14:25.048Z,22.5
2019-05-30T04:17:53.046Z,22.5
2019-05-30T04:21:23.975Z,28.125
2019-05-30T04:24:51.993Z,28.125
2019-05-30T04:28:20.935Z,28.125
2019-05-30T04:31:48.913Z,28.125
2019-05-30T04:35:19.835Z,28.125
2019-05-30T04:38:47.792Z,28.125
2019-05-30T04:42:20.549Z,28.125
2019-05-30T04:45:47.763Z,28.125
2019-05-30T04:49:21.562Z,28.125
2019-05-30T04:52:48.606Z,28.125
2019-05-30T04:56:21.700Z,28.125
2019-05-30T04:59:48.583Z,28.125
2019-05-30T05:03:41.508Z,28.125
2019-05-30T05:06:51.429Z,28.125
2019-05-30T05:10:23.354Z,28.125
2019-05-30T05:13:51.310Z,28.125
2019-05-30T05:17:20.918Z,28.125
2019-05-30T05:20:49.291Z,28.125
2019-05-30T05:24:21.085Z,28.125
2019-05-30T05:27:50.175Z,28.125
2019-05-30T05:31:20.312Z,33.75
2019-05-30T05:34:52.004Z,33.75
2019-05-30T05:38:24.305Z,33.75
2019-05-30T05:41:52.022Z,33.75
2019-05-30T05:45:21.016Z,33.75
2019-05-30T05:48:48.998Z,33.75
2019-05-30T05:52:18.796Z,33.75
2019-05-30T05:55:45.996Z,33.75
2019-05-30T05:59:13.947Z,39.375
2019-05-30T06:02:41.919Z,39.375
2019-05-30T06:06:09.889Z,39.375
2019-05-30T06:09:37.858Z,39.375
2019-05-30T06:13:05.824Z,39.375
2019-05-30T06:16:34.640Z,39.375
2019-05-30T06:20:02.650Z,39.375
2019-05-30T06:23:30.619Z,39.375
2019-05-30T06:26:58.581Z,45
2019-05-30T06:30:29.520Z,45
2019-05-30T06:33:57.561Z,45
2019-05-30T06:37:27.272Z,45
2019-05-30T06:40:54.470Z,50.625
2019-05-30T06:44:22.423Z,50.625
2019-05-30T06:47:50.365Z,50.625
2019-05-30T06:51:18.348Z,45
2019-05-30T06:54:47.449Z,45
2019-05-30T06:58:15.391Z,45
2019-05-30T07:01:44.339Z,50.625
2019-05-30T07:05:14.747Z,56.25
2019-05-30T07:08:43.198Z,56.25
2019-05-30T07:12:13.145Z,61.875
2019-05-30T07:15:41.223Z,61.875
2019-05-30T07:19:09.156Z,67.5
2019-05-30T07:22:38.113Z,67.5
2019-05-30T07:26:07.094Z,61.875
2019-05-30T07:29:36.057Z,61.875
2019-05-30T07:33:04.010Z,61.875
2019-05-30T07:36:32.779Z,67.5
2019-05-30T07:40:00.744Z,67.5
2019-05-30T07:43:33.501Z,67.5
2019-05-30T07:47:01.638Z,73.125
2019-05-30T07:50:34.539Z,73.125
2019-05-30T07:54:02.554Z,78.75
2019-05-30T07:57:30.495Z,78.75
2019-05-30T08:00:59.446Z,78.75
2019-05-30T08:04:29.448Z,78.75
2019-05-30T08:07:58.349Z,84.375
2019-05-30T08:11:26.740Z,90
2019-05-30T08:14:54.294Z,106.875
2019-05-30T08:18:22.253Z,140.625
2019-05-30T08:21:50.223Z,163.125
2019-05-30T08:25:18.209Z,180
2019-05-30T08:28:47.156Z,168.75
2019-05-30T08:32:15.104Z,180
2019-05-30T08:35:49.738Z,163.125
2019-05-30T08:39:17.028Z,174.375
2019-05-30T08:42:44.969Z,202.5
2019-05-30T08:46:12.928Z,213.75
2019-05-30T08:49:40.888Z,202.5
2019-05-30T08:53:08.849Z,208.125
2019-05-30T08:56:38.793Z,236.25
2019-05-30T09:00:06.798Z,253.125
2019-05-30T09:03:35.793Z,275.625
2019-05-30T09:07:05.687Z,275.625
2019-05-30T09:10:33.660Z,275.625
2019-05-30T09:14:02.599Z,275.625
2019-05-30T09:17:30.564Z,264.375
2019-05-30T09:20:58.554Z,230.625
2019-05-30T09:24:26.515Z,196.875
2019-05-30T09:27:54.450Z,202.5
2019-05-30T09:31:22.399Z,208.125
2019-05-30T09:34:51.374Z,196.875
2019-05-30T09:38:19.314Z,236.25
2019-05-30T09:41:48.272Z,230.625
2019-05-30T09:45:16.696Z,225
2019-05-30T09:48:46.686Z,213.75
2019-05-30T09:52:15.155Z,241.875
2019-05-30T09:55:46.156Z,247.5
2019-05-30T09:59:15.091Z,253.125
2019-05-30T10:02:46.554Z,219.375
2019-05-30T10:06:28.776Z,236.25
2019-05-30T10:09:53.910Z,247.5
2019-05-30T10:13:21.848Z,241.875
2019-05-30T10:16:56.409Z,253.125
2019-05-30T10:20:23.740Z,275.625
2019-05-30T10:23:54.656Z,292.5
2019-05-30T10:27:22.663Z,292.5
2019-05-30T10:30:58.898Z,320.625
2019-05-30T10:34:24.542Z,315
2019-05-30T10:37:53.494Z,315
2019-05-30T10:41:21.457Z,315
2019-05-30T10:44:54.590Z,309.375
2019-05-30T10:48:24.361Z,315
2019-05-30T10:51:57.833Z,315
2019-05-30T10:55:26.234Z,309.375
2019-05-30T10:58:58.220Z,315
2019-05-30T11:02:26.180Z,315
2019-05-30T11:05:58.110Z,270
2019-05-30T11:09:26.049Z,219.375
2019-05-30T11:13:05.548Z,225
2019-05-30T11:16:28.913Z,241.875
2019-05-30T11:19:59.825Z,247.5
2019-05-30T11:23:27.787Z,236.25
2019-05-30T11:26:59.732Z,241.875
2019-05-30T11:30:27.714Z,264.375
2019-05-30T11:33:56.742Z,315
2019-05-30T11:37:25.644Z,331.875
2019-05-30T11:40:57.534Z,365.625
2019-05-30T11:44:26.498Z,410.625
2019-05-30T11:47:57.928Z,388.125
2019-05-30T11:51:26.423Z,382.5
2019-05-30T11:54:56.349Z,388.125
2019-05-30T11:58:24.313Z,320.625
2019-05-30T12:01:56.373Z,388.125
2019-05-30T12:05:26.204Z,298.125
2019-05-30T12:08:56.907Z,326.25
2019-05-30T12:12:25.126Z,264.375
2019-05-30T12:15:57.309Z,337.5
2019-05-30T12:19:27.013Z,348.75
2019-05-30T12:22:59.832Z,303.75
2019-05-30T12:26:33.104Z,337.5
2019-05-30T12:30:00.811Z,258.75
2019-05-30T12:33:28.776Z,180
2019-05-30T12:37:02.776Z,123.75
2019-05-30T12:40:30.611Z,151.875
2019-05-30T12:43:59.107Z,151.875
2019-05-30T12:47:26.546Z,151.875
2019-05-30T12:50:55.144Z,129.375
2019-05-30T12:54:22.451Z,123.75
2019-05-30T12:57:50.412Z,140.625
2019-05-30T13:01:18.352Z,118.125
2019-05-30T13:04:46.363Z,118.125
2019-05-30T13:08:21.783Z,112.5
2019-05-30T13:11:48.242Z,168.75
2019-05-30T13:15:16.207Z,191.25
2019-05-30T13:18:44.162Z,146.25
2019-05-30T13:22:12.110Z,202.5
2019-05-30T13:25:40.114Z,191.25
2019-05-30T13:29:09.065Z,225
2019-05-30T13:32:37.048Z,225
2019-05-30T13:36:07.965Z,270
2019-05-30T13:39:35.918Z,225
2019-05-30T13:43:08.006Z,202.5
2019-05-30T13:46:36.496Z,236.25
2019-05-30T13:50:12.484Z,258.75
2019-05-30T13:53:39.350Z,213.75
2019-05-30T13:57:07.812Z,185.625
2019-05-30T14:00:36.309Z,146.25
2019-05-30T14:04:08.224Z,157.5
2019-05-30T14:07:37.128Z,196.875
2019-05-30T14:11:05.107Z,241.875
2019-05-30T14:14:33.062Z,208.125
2019-05-30T14:18:02.870Z,247.5
2019-05-30T14:21:30.028Z,258.75
2019-05-30T14:24:57.991Z,180
2019-05-30T14:28:25.974Z,140.625
2019-05-30T14:31:53.922Z,106.875
2019-05-30T14:35:21.894Z,123.75
2019-05-30T14:38:58.583Z,185.625
2019-05-30T14:42:26.247Z,123.75
2019-05-30T14:45:54.199Z,112.5
2019-05-30T14:49:23.146Z,78.75
2019-05-30T14:52:51.106Z,90
2019-05-30T14:56:19.064Z,90
2019-05-30T14:59:47.062Z,78.75
2019-05-30T15:03:18.022Z,95.625
2019-05-30T15:06:45.981Z,95.625
2019-05-30T15:10:16.989Z,78.75
2019-05-30T15:13:44.917Z,61.875
2019-05-30T15:17:13.943Z,73.125
2019-05-30T15:20:42.812Z,90
2019-05-30T15:24:14.322Z,78.75
2019-05-30T15:27:42.766Z,50.625
2019-05-30T15:31:10.762Z,33.75
2019-05-30T15:34:38.749Z,28.125
2019-05-30T15:38:08.741Z,33.75
2019-05-30T15:41:37.730Z,50.625
2019-05-30T15:45:05.695Z,61.875
2019-05-30T15:48:34.656Z,78.75
2019-05-30T15:52:02.615Z,106.875
2019-05-30T15:55:30.581Z,146.25
2019-05-30T15:58:58.568Z,241.875
2019-05-30T16:02:26.533Z,219.375
2019-05-30T16:05:54.493Z,191.25
2019-05-30T16:09:22.454Z,95.625
2019-05-30T16:12:50.457Z,106.875
2019-05-30T16:16:33.571Z,174.375
2019-05-30T16:19:49.365Z,168.75
2019-05-30T16:23:20.247Z,118.125
2019-05-30T16:26:50.243Z,106.875
2019-05-30T16:30:25.207Z,90
2019-05-30T16:33:52.130Z,56.25
2019-05-30T16:37:23.071Z,45
2019-05-30T16:40:51.085Z,45
2019-05-30T16:44:20.908Z,50.625
2019-05-30T16:47:50.947Z,45
2019-05-30T16:51:23.539Z,73.125
2019-05-30T16:54:50.964Z,67.5
2019-05-30T16:58:21.964Z,50.625
2019-05-30T17:01:57.606Z,45
2019-05-30T17:05:22.072Z,45
2019-05-30T17:08:50.105Z,56.25
2019-05-30T17:12:18.131Z,45
2019-05-30T17:15:48.099Z,28.125
2019-05-30T17:19:18.216Z,22.5
2019-05-30T17:22:48.027Z,16.875
2019-05-30T17:26:17.015Z,11.25
2019-05-30T17:29:45.937Z,11.25
2019-05-30T17:33:17.115Z,11.25
2019-05-30T17:36:43.963Z,11.25
2019-05-30T17:40:12.899Z,16.875
2019-05-30T17:43:40.860Z,16.875
2019-05-30T17:47:08.813Z,22.5
2019-05-30T17:50:36.806Z,22.5
2019-05-30T17:54:05.757Z,22.5
2019-05-30T17:57:34.722Z,11.25
2019-05-30T18:01:02.681Z,11.25
2019-05-30T18:04:32.623Z,5.625
2019-05-30T18:08:00.595Z,5.625
2019-05-30T18:11:28.998Z,11.25
2019-05-30T18:14:57.588Z,16.875
2019-05-30T18:18:31.073Z,16.875
2019-05-30T18:21:59.143Z,16.875
2019-05-30T18:25:28.097Z,16.875
2019-05-30T18:28:56.089Z,22.5
2019-05-30T18:32:28.179Z,22.5
2019-05-30T18:35:58.042Z,11.25
2019-05-30T18:39:26.598Z,11.25
2019-05-30T18:42:53.992Z,16.875
2019-05-30T18:46:23.005Z,11.25
2019-05-30T18:49:50.942Z,5.625
2019-05-30T18:53:18.918Z,5.625
2019-05-30T18:56:46.892Z,5.625
2019-05-30T19:00:18.929Z,5.625
2019-05-30T19:03:47.205Z,5.625
2019-05-30T19:07:15.205Z,5.625
2019-05-30T19:10:43.313Z,5.625
2019-05-30T19:14:11.284Z,5.625
2019-05-30T19:17:40.274Z,0
2019-05-30T19:21:09.260Z,0
2019-05-30T19:24:37.250Z,0
2019-05-30T19:28:05.250Z,0
2019-05-30T19:31:33.266Z,0
2019-05-30T19:35:01.220Z,0
2019-05-30T19:38:33.248Z,0
2019-05-30T19:42:03.079Z,0
2019-05-30T19:45:36.096Z,0
2019-05-30T19:49:05.061Z,0
2019-05-30T19:52:34.764Z,0
2019-05-30T19:56:01.987Z,0
2019-05-30T19:59:29.968Z,0
2019-05-30T20:02:59.030Z,0
2019-05-30T20:06:28.080Z,0
2019-05-30T20:10:01.994Z,0
2019-05-30T20:13:33.053Z,0
2019-05-30T20:17:02.099Z,0
2019-05-30T20:20:44.405Z,0
2019-05-30T20:24:02.592Z,0
2019-05-30T20:27:34.595Z,0
2019-05-30T20:31:04.285Z,0
2019-05-30T20:34:32.243Z,0
2019-05-30T20:38:02.185Z,0
2019-05-30T20:41:30.166Z,0
2019-05-30T20:44:58.127Z,0
2019-05-30T20:48:26.977Z,0
2019-05-30T20:51:56.798Z,0
2019-05-30T20:55:24.773Z,0
2019-05-30T20:58:52.723Z,0
2019-05-30T21:02:20.825Z,0
2019-05-30T21:05:48.806Z,0
2019-05-30T21:09:28.739Z,0
2019-05-30T21:12:52.646Z,0
2019-05-30T21:16:20.668Z,0
2019-05-30T21:19:48.687Z,0
2019-05-30T21:23:16.567Z,0
2019-05-30T21:26:44.826Z,0
2019-05-30T21:30:13.469Z,0
2019-05-30T21:33:45.736Z,0
2019-05-30T21:37:14.321Z,0
2019-05-30T21:40:46.435Z,0
2019-05-30T21:44:16.195Z,0
2019-05-30T21:47:46.827Z,0
2019-05-30T21:51:15.071Z,0
2019-05-30T21:54:45.768Z,0
2019-05-30T21:58:13.028Z,0
